CYKF

Waterloo Airport

Kitchener, Ontario, Canada
METAR CYKF 242100Z AUTO 10014G19KT 9SM FEW016 OVC026 17/14 A3023 RMK SLP238 DENSITY ALT 1100FT
Observed Flight Rules
Sep-24 @ 21:00 UTC (23 minutes ago) Marginal Visual Flight Rules
Wind Visibility Clouds
100° at 14 knots
 Gusting to 19 knots
9 miles
  • Few at 1,600' AGL
  • Overcast at 2,600' AGL
Temperatures Readings
Current 17°C / 63°F
Dewpoint 14°C / 57°F
Humidity 83%
Altimeter 30.23" Hg
Pressure 1023.8 hPa
Elevation 317
METAR CYKF 242100Z AUTO 10014G19KT 9SM FEW016 OVC026 17/14 A3023 RMK SLP238 DENSITY ALT 1100FT
Observed Flight Rules
Sep-24 @ 21:00 UTC
(23 minutes ago)
MVFR
Wind Visibility
100° at 14 knots
 Gusting to 19 knots
9 miles
Clouds
  • Few at 1,600' AGL
  • Overcast at 2,600' AGL
Temperature Dewpoint
17°C / 63°F 14°C / 57°F
Humidity Altimeter Pressure
83% 30.23" Hg 1023.8 hPa